Time;durP1;ratioP1;P1;durP2;ratioP2;P2;SDS_P1;SDS_P2;PMS_P1;PMS_P2;Temp;Humidity;BMP_temperature;BMP_pressure;BME280_temperature;BME280_humidity;BME280_pressure;Samples;Min_cycle;Max_cycle;Signal;HPM_P1;HPM_P2
2022/06/13 00:01:34;;;;;;;2.47;2.28;;;16.20;99.90;;;;;;5171161;28;20050;-63
2022/06/13 00:04:11;;;;;;;2.20;2.00;;;16.10;99.90;;;;;;5171846;28;20045;-61
2022/06/13 00:06:45;;;;;;;2.60;1.90;;;16.10;99.90;;;;;;5145474;28;20382;-63
2022/06/13 00:09:22;;;;;;;2.65;2.45;;;16.10;99.90;;;;;;5169292;28;20027;-63
2022/06/13 00:11:56;;;;;;;3.05;2.13;;;16.00;99.90;;;;;;5156455;28;20064;-62
2022/06/13 00:14:30;;;;;;;2.17;1.98;;;16.00;99.90;;;;;;5156405;28;20408;-62
2022/06/13 00:17:01;;;;;;;2.20;2.10;;;15.90;99.90;;;;;;5156164;28;20380;-62
2022/06/13 00:19:35;;;;;;;3.22;1.95;;;15.90;99.90;;;;;;5143096;28;20045;-62
2022/06/13 00:22:09;;;;;;;2.30;2.10;;;15.80;99.90;;;;;;5136881;28;20031;-62
2022/06/13 00:24:41;;;;;;;2.10;1.90;;;15.70;99.90;;;;;;5161608;28;20052;-62
2022/06/13 00:27:17;;;;;;;2.17;1.98;;;15.70;99.90;;;;;;5139104;28;20168;-62
2022/06/13 00:29:51;;;;;;;2.92;2.20;;;15.70;99.90;;;;;;5155457;28;20064;-62
2022/06/13 00:32:25;;;;;;;2.25;2.05;;;15.70;99.90;;;;;;5156697;28;20223;-62
2022/06/13 00:35:02;;;;;;;2.85;2.60;;;15.70;99.90;;;;;;5138447;28;20042;-62
2022/06/13 00:37:36;;;;;;;5.95;2.13;;;15.70;99.90;;;;;;5143218;28;20315;-62
2022/06/13 00:40:09;;;;;;;;;;;15.70;99.90;;;;;;5170804;28;20240;-62
2022/06/13 00:42:44;;;;;;;2.25;1.95;;;15.90;99.90;;;;;;5155158;28;19916;-62
2022/06/13 00:45:27;;;;;;;2.17;1.98;;;15.90;99.90;;;;;;5154965;28;20053;-62
2022/06/13 00:47:59;;;;;;;7.72;2.25;;;15.80;99.90;;;;;;5156700;28;20246;-63
2022/06/13 00:50:44;;;;;;;2.65;2.20;;;15.70;99.90;;;;;;5169593;28;20042;-62
2022/06/13 00:53:33;;;;;;;1.85;1.70;;;15.60;99.90;;;;;;5161200;28;20046;-62
2022/06/13 00:56:11;;;;;;;2.75;2.40;;;15.60;99.90;;;;;;5166307;28;20053;-62
2022/06/13 00:58:55;;;;;;;2.35;2.15;;;15.60;99.90;;;;;;5160035;28;20377;-63
2022/06/13 01:01:32;;;;;;;3.53;2.17;;;15.50;99.90;;;;;;5174205;28;20034;-63
2022/06/13 01:04:08;;;;;;;2.40;2.20;;;15.40;99.90;;;;;;5174566;28;20034;-62
2022/06/13 01:06:47;;;;;;;2.85;2.60;;;15.40;99.90;;;;;;5180961;28;20069;-62
2022/06/13 01:11:16;;;;;;;2.85;2.53;;;15.30;99.90;;;;;;5155031;28;20331;-63
2022/06/13 01:12:15;;;;;;;;;;;15.20;99.90;;;;;;5184742;28;20579;-62
2022/06/13 01:15:16;;;;;;;3.40;2.05;;;15.20;99.90;;;;;;5174547;28;19943;-62
2022/06/13 01:18:02;;;;;;;2.40;2.20;;;15.10;99.90;;;;;;5175358;28;20052;-62
2022/06/13 01:20:54;;;;;;;1.80;1.70;;;15.20;99.90;;;;;;5158048;28;20042;-62
2022/06/13 01:24:17;;;;;;;2.50;2.30;;;15.10;99.90;;;;;;5174479;28;20085;-62
2022/06/13 01:27:06;;;;;;;2.17;1.92;;;15.10;99.90;;;;;;5152587;28;20042;-61
2022/06/13 01:30:02;;;;;;;2.50;2.30;;;15.10;99.90;;;;;;5161720;28;20038;-63
2022/06/13 01:32:54;;;;;;;;;;;15.20;99.90;;;;;;5175420;28;20421;-62
2022/06/13 01:35:31;;;;;;;2.95;2.38;;;15.10;99.90;;;;;;5174674;28;20241;-61
2022/06/13 01:38:21;;;;;;;2.97;2.10;;;15.10;99.90;;;;;;5160170;28;20307;-61
2022/06/13 01:41:23;;;;;;;5.88;2.30;;;15.00;99.90;;;;;;5157781;28;20040;-62
2022/06/13 01:44:29;;;;;;;2.90;2.08;;;14.90;99.90;;;;;;5158327;28;20500;-60
2022/06/13 01:47:09;;;;;;;3.15;2.47;;;14.90;99.90;;;;;;5174238;28;20030;-62
2022/06/13 01:50:05;;;;;;;3.97;3.10;;;14.80;99.90;;;;;;5152375;28;20046;-62
2022/06/13 01:53:04;;;;;;;3.17;2.60;;;14.80;99.90;;;;;;5173781;28;20042;-62
2022/06/13 01:55:58;;;;;;;2.47;2.22;;;14.70;99.90;;;;;;5172780;28;20050;-61
2022/06/13 01:59:44;;;;;;;3.33;2.50;;;14.80;99.90;;;;;;5159180;28;20132;-62
2022/06/13 02:02:47;;;;;;;3.95;2.60;;;14.70;99.90;;;;;;5132385;28;20056;-63
2022/06/13 02:05:36;;;;;;;3.50;2.15;;;14.70;99.90;;;;;;5176981;28;20063;-63
2022/06/13 02:08:17;;;;;;;2.25;2.08;;;14.80;99.90;;;;;;5161635;28;20547;-61
2022/06/13 02:11:02;;;;;;;2.08;1.98;;;14.80;99.90;;;;;;5157038;28;20204;-62
2022/06/13 02:13:43;;;;;;;2.33;2.13;;;14.80;99.90;;;;;;5172029;28;20380;-61
2022/06/13 02:16:31;;;;;;;2.35;2.15;;;14.90;99.90;;;;;;5190046;28;20034;-62
2022/06/13 02:19:14;;;;;;;2.35;2.15;;;14.80;99.90;;;;;;5158094;28;20040;-62
2022/06/13 02:22:00;;;;;;;2.03;1.80;;;14.80;99.90;;;;;;5161924;28;20042;-61
2022/06/13 02:24:43;;;;;;;2.13;1.92;;;14.80;99.90;;;;;;5156984;28;20031;-62
2022/06/13 02:27:19;;;;;;;3.90;2.20;;;14.80;99.90;;;;;;5172851;28;20125;-62
2022/06/13 02:30:13;;;;;;;2.67;1.92;;;14.70;99.90;;;;;;5155753;28;20068;-62
2022/06/13 02:33:04;;;;;;;1.73;1.63;;;14.60;99.90;;;;;;5172231;28;20038;-61
2022/06/13 02:35:54;;;;;;;2.95;2.08;;;14.60;99.90;;;;;;5152533;28;20244;-64
2022/06/13 02:38:36;;;;;;;2.25;2.05;;;14.50;99.90;;;;;;5166595;28;20046;-63
2022/06/13 02:41:14;;;;;;;2.30;1.90;;;14.50;99.90;;;;;;5187765;28;20038;-62
2022/06/13 02:44:01;;;;;;;7.70;2.30;;;14.40;99.90;;;;;;5188093;28;20057;-61
2022/06/13 02:46:46;;;;;;;4.85;2.35;;;14.40;99.90;;;;;;5172269;28;20213;-62
2022/06/13 02:49:30;;;;;;;3.40;2.55;;;14.30;99.90;;;;;;5172482;28;20040;-61
2022/06/13 02:52:27;;;;;;;2.28;2.08;;;14.30;99.90;;;;;;5172146;28;20235;-61
2022/06/13 02:55:10;;;;;;;2.40;2.17;;;14.30;99.90;;;;;;5157609;28;20315;-63
2022/06/13 02:58:24;;;;;;;2.13;2.03;;;14.30;99.90;;;;;;5156696;28;20026;-63
2022/06/13 03:01:06;;;;;;;2.20;2.00;;;14.40;99.90;;;;;;5152621;28;20034;-61
2022/06/13 03:03:48;;;;;;;5.32;2.33;;;14.40;99.90;;;;;;5157737;28;20069;-62
2022/06/13 03:06:35;;;;;;;4.00;2.35;;;14.40;99.90;;;;;;5182021;28;20112;-62
2022/06/13 03:09:16;;;;;;;2.22;2.03;;;14.30;99.90;;;;;;5172119;28;20057;-62
2022/06/13 03:12:12;;;;;;;2.63;2.20;;;14.30;99.90;;;;;;5156398;28;20057;-61
2022/06/13 03:14:57;;;;;;;2.30;2.10;;;14.30;99.90;;;;;;5187636;28;20510;-63
2022/06/13 03:18:00;;;;;;;3.78;2.60;;;14.40;99.90;;;;;;5156007;28;20289;-62
2022/06/13 03:21:15;;;;;;;3.70;2.20;;;14.40;99.90;;;;;;5164394;28;20335;-61
2022/06/13 03:23:57;;;;;;;2.40;2.20;;;14.60;99.90;;;;;;5152305;28;20355;-62
2022/06/13 03:26:37;;;;;;;3.03;2.33;;;14.70;99.90;;;;;;5192415;28;20219;-62
2022/06/13 03:29:19;;;;;;;3.05;2.30;;;14.80;99.90;;;;;;5192711;28;20056;-62
2022/06/13 03:31:58;;;;;;;2.33;1.83;;;14.90;99.90;;;;;;5172708;28;20240;-62
2022/06/13 03:34:39;;;;;;;5.82;2.33;;;14.90;99.90;;;;;;5167891;28;20043;-62
2022/06/13 03:37:23;;;;;;;2.00;1.88;;;15.20;99.90;;;;;;5171628;28;20046;-62
2022/06/13 03:40:11;;;;;;;2.05;1.95;;;15.40;99.90;;;;;;5168130;28;20058;-62
2022/06/13 03:43:20;;;;;;;2.42;2.22;;;15.60;99.90;;;;;;5168126;28;20083;-62
2022/06/13 03:45:59;;;;;;;2.05;1.73;;;15.80;99.90;;;;;;5153417;28;20053;-63
2022/06/13 03:49:03;;;;;;;2.13;1.92;;;16.00;99.90;;;;;;5170600;28;20039;-62
2022/06/13 03:51:52;;;;;;;2.30;1.92;;;16.20;99.90;;;;;;5162914;28;20043;-62
2022/06/13 03:54:39;;;;;;;3.05;1.80;;;16.50;99.90;;;;;;5169241;28;20036;-62
2022/06/13 03:57:34;;;;;;;2.28;2.08;;;16.90;99.90;;;;;;5151271;28;20046;-61
2022/06/13 04:00:25;;;;;;;;;;;17.30;99.90;;;;;;5166092;28;20042;-61
2022/06/13 04:03:00;;;;;;;1.88;1.70;;;17.50;99.90;;;;;;5187763;28;19927;-61
2022/06/13 04:06:02;;;;;;;;;;;17.60;99.90;;;;;;5169642;28;20362;-63
2022/06/13 04:08:37;;;;;;;2.60;2.40;;;17.60;99.90;;;;;;5158034;28;20146;-62
2022/06/13 04:11:45;;;;;;;2.58;1.90;;;17.60;99.90;;;;;;5170995;28;20038;-61
2022/06/13 04:15:08;;;;;;;2.22;1.98;;;17.60;99.90;;;;;;5171882;28;20331;-62
2022/06/13 04:18:04;;;;;;;1.90;1.70;;;17.70;99.90;;;;;;5161960;28;20050;-62
2022/06/13 04:21:10;;;;;;;1.77;1.67;;;17.60;99.90;;;;;;5149613;28;20034;-64
2022/06/13 04:24:46;;;;;;;2.22;2.03;;;17.60;99.90;;;;;;5179366;28;20029;-62
2022/06/13 04:27:29;;;;;;;2.35;1.92;;;17.60;99.90;;;;;;5132067;28;20106;-62
2022/06/13 04:30:17;;;;;;;2.75;1.70;;;17.80;99.90;;;;;;5123565;28;20047;-63
2022/06/13 04:33:29;;;;;;;1.80;1.70;;;18.10;99.90;;;;;;5129533;28;20047;-62
2022/06/13 04:36:05;;;;;;;1.77;1.60;;;18.10;99.90;;;;;;5113087;29;20042;-63
2022/06/13 04:38:41;;;;;;;1.98;1.60;;;18.40;99.90;;;;;;5129029;28;20051;-63
2022/06/13 04:41:18;;;;;;;1.50;1.40;;;18.50;99.90;;;;;;5144313;28;20331;-62
2022/06/13 04:43:57;;;;;;;1.80;1.67;;;18.60;99.90;;;;;;5113112;28;20287;-62
2022/06/13 04:46:29;;;;;;;2.58;1.52;;;18.60;99.90;;;;;;5146424;28;20031;-62
2022/06/13 04:49:17;;;;;;;1.50;1.40;;;18.70;99.90;;;;;;5097421;29;20065;-62
2022/06/13 04:51:53;;;;;;;1.70;1.60;;;18.70;99.90;;;;;;5128037;28;20057;-63
2022/06/13 04:54:38;;;;;;;1.42;1.33;;;18.70;99.90;;;;;;5112334;29;20043;-61
2022/06/13 04:57:16;;;;;;;1.70;1.60;;;18.70;99.90;;;;;;5093557;28;20058;-62
2022/06/13 04:59:50;;;;;;;1.40;1.30;;;18.80;99.90;;;;;;5118963;28;20194;-62
2022/06/13 05:02:37;;;;;;;1.40;1.30;;;19.10;99.90;;;;;;5136304;28;20316;-62
2022/06/13 05:05:46;;;;;;;1.58;1.40;;;19.50;99.90;;;;;;5137162;28;20056;-62
2022/06/13 05:08:28;;;;;;;2.25;1.45;;;19.90;99.90;;;;;;5106728;28;20046;-63
2022/06/13 05:11:28;;;;;;;3.97;1.55;;;20.20;99.90;;;;;;5128394;28;20120;-62
2022/06/13 05:14:14;;;;;;;1.67;1.48;;;19.70;99.90;;;;;;5112178;28;20047;-61
2022/06/13 05:17:11;;;;;;;2.05;1.40;;;19.50;99.90;;;;;;5119272;28;20034;-63
2022/06/13 05:19:57;;;;;;;1.50;1.40;;;19.20;99.90;;;;;;5116608;28;20026;-61
2022/06/13 05:22:47;;;;;;;1.92;1.75;;;19.00;99.90;;;;;;5117843;28;20073;-63
2022/06/13 05:25:45;;;;;;;1.70;1.55;;;19.20;99.90;;;;;;5139419;28;20051;-62
2022/06/13 05:28:21;;;;;;;1.65;1.55;;;19.20;99.90;;;;;;5116930;28;20053;-61
2022/06/13 05:30:56;;;;;;;2.45;1.45;;;19.10;99.90;;;;;;5099804;28;20041;-62
2022/06/13 05:33:34;;;;;;;1.70;1.30;;;19.10;99.90;;;;;;5131422;28;20042;-62
2022/06/13 05:36:14;;;;;;;1.40;1.30;;;19.20;99.90;;;;;;5142564;28;20070;-62
2022/06/13 05:38:57;;;;;;;1.90;1.50;;;19.30;99.90;;;;;;5134162;28;20080;-62
2022/06/13 05:41:31;;;;;;;2.72;1.63;;;19.40;99.90;;;;;;5154764;28;20038;-62
2022/06/13 05:44:11;;;;;;;1.48;1.38;;;19.50;99.90;;;;;;5156977;28;20053;-62
2022/06/13 05:46:45;;;;;;;1.80;1.40;;;19.60;99.90;;;;;;5171300;28;20034;-62
2022/06/13 05:49:17;;;;;;;1.35;1.25;;;19.60;99.90;;;;;;5185547;28;20351;-61
2022/06/13 05:51:51;;;;;;;1.08;1.08;;;19.70;99.90;;;;;;5188640;28;20039;-61
2022/06/13 05:54:22;;;;;;;1.58;1.48;;;19.70;99.90;;;;;;5141104;28;20027;-61
2022/06/13 05:56:54;;;;;;;1.63;1.52;;;19.70;99.90;;;;;;5157297;28;20032;-61
2022/06/13 05:59:25;;;;;;;1.73;1.63;;;19.50;99.90;;;;;;5156362;28;20030;-62
2022/06/13 06:02:02;;;;;;;1.90;1.33;;;19.50;99.90;;;;;;5152602;28;20030;-62
2022/06/13 06:04:37;;;;;;;2.00;1.65;;;19.40;99.90;;;;;;5148947;28;20489;-62
2022/06/13 06:07:12;;;;;;;2.00;1.52;;;19.30;99.90;;;;;;5158171;28;20320;-61
2022/06/13 06:09:46;;;;;;;1.83;1.60;;;19.10;99.90;;;;;;5157095;28;20032;-61
2022/06/13 06:12:18;;;;;;;2.10;1.90;;;19.10;99.90;;;;;;5157757;28;20206;-62
2022/06/13 06:14:55;;;;;;;1.83;1.63;;;19.10;99.90;;;;;;5171598;28;20042;-65
2022/06/13 06:17:26;;;;;;;1.50;1.35;;;19.20;99.90;;;;;;5157716;28;20129;-63
2022/06/13 06:20:00;;;;;;;2.15;1.70;;;19.20;99.90;;;;;;5159294;28;20026;-63
2022/06/13 06:22:34;;;;;;;1.85;1.60;;;19.30;99.90;;;;;;5172684;28;20030;-62
2022/06/13 06:25:11;;;;;;;1.73;1.63;;;19.30;99.90;;;;;;5158919;28;20046;-62
2022/06/13 06:27:45;;;;;;;1.67;1.58;;;19.30;99.90;;;;;;5158399;28;20042;-62
2022/06/13 06:30:17;;;;;;;1.92;1.70;;;19.30;99.90;;;;;;5183051;28;20050;-62
2022/06/13 06:32:54;;;;;;;5.43;1.52;;;19.30;99.90;;;;;;5188402;28;20039;-62
2022/06/13 06:35:29;;;;;;;1.60;1.45;;;19.20;99.90;;;;;;5188632;28;20038;-62
2022/06/13 06:38:00;;;;;;;;;;;19.30;99.90;;;;;;5183034;28;20226;-62
2022/06/13 06:40:37;;;;;;;5.15;1.70;;;19.40;99.90;;;;;;5172576;28;19918;-62
2022/06/13 06:43:15;;;;;;;1.98;1.80;;;19.40;99.90;;;;;;5156272;28;20385;-62
2022/06/13 06:45:50;;;;;;;1.52;1.42;;;19.50;99.90;;;;;;5157078;28;20377;-62
2022/06/13 06:48:29;;;;;;;1.75;1.45;;;19.60;99.90;;;;;;5156927;28;20421;-62
2022/06/13 06:51:05;;;;;;;1.98;1.67;;;19.70;99.90;;;;;;5155148;28;20038;-62
2022/06/13 07:02:15;;;;;;;1.48;1.33;;;20.10;99.90;;;;;;5171747;28;20816;-61
2022/06/13 07:04:49;;;;;;;2.58;1.90;;;20.10;99.90;;;;;;5164985;28;20061;-61
2022/06/13 07:07:28;;;;;;;1.73;1.60;;;20.40;99.90;;;;;;5162041;28;20038;-61
2022/06/13 07:10:02;;;;;;;1.63;1.42;;;20.40;99.90;;;;;;5153685;28;20038;-62
2022/06/13 07:12:34;;;;;;;2.72;1.55;;;20.50;99.90;;;;;;5154532;28;20427;-61
2022/06/13 07:15:09;;;;;;;2.78;1.80;;;20.50;99.90;;;;;;5171763;28;20545;-62
2022/06/13 07:17:44;;;;;;;2.10;1.52;;;20.70;99.90;;;;;;5172876;28;20037;-62
2022/06/13 07:20:20;;;;;;;1.95;1.70;;;20.90;99.90;;;;;;5157203;28;20032;-62
2022/06/13 07:22:53;;;;;;;2.38;1.85;;;21.10;99.90;;;;;;5172818;28;20049;-62
2022/06/13 07:25:31;;;;;;;2.13;1.65;;;21.00;99.90;;;;;;5172327;28;20061;-62
2022/06/13 07:28:03;;;;;;;1.60;1.50;;;21.10;99.90;;;;;;5156476;28;20042;-62
2022/06/13 07:30:37;;;;;;;1.60;1.50;;;21.10;99.90;;;;;;5156343;28;20042;-63
2022/06/13 07:33:09;;;;;;;1.83;1.60;;;21.10;99.90;;;;;;5155933;28;20354;-63
2022/06/13 07:35:41;;;;;;;1.50;1.40;;;21.30;99.90;;;;;;5167623;28;20023;-63
2022/06/13 07:38:18;;;;;;;1.65;1.55;;;21.60;99.90;;;;;;5162758;28;20046;-63
2022/06/13 07:41:02;;;;;;;2.10;1.90;;;21.80;99.90;;;;;;5155714;28;20054;-63
2022/06/13 07:43:43;;;;;;;2.00;1.80;;;22.00;99.90;;;;;;5155884;28;20030;-62
2022/06/13 07:46:18;;;;;;;2.28;2.05;;;21.70;99.90;;;;;;5170619;28;20034;-63
2022/06/13 07:48:49;;;;;;;1.60;1.50;;;21.70;99.90;;;;;;5155622;28;20060;-62
2022/06/13 07:51:23;;;;;;;1.65;1.55;;;21.70;99.90;;;;;;5154957;28;20035;-62
2022/06/13 07:53:58;;;;;;;2.08;1.38;;;21.90;99.90;;;;;;5154708;28;20303;-62
2022/06/13 07:56:32;;;;;;;2.28;1.80;;;21.80;99.90;;;;;;5155485;28;20057;-63
2022/06/13 07:59:04;;;;;;;1.70;1.60;;;21.60;99.90;;;;;;5173900;28;20034;-62
2022/06/13 08:01:37;;;;;;;1.90;1.77;;;21.60;99.90;;;;;;5153874;28;20046;-63
2022/06/13 08:04:09;;;;;;;1.92;1.73;;;22.30;99.90;;;;;;5156056;28;20069;-62
2022/06/13 08:06:42;;;;;;;1.73;1.63;;;22.30;99.90;;;;;;5144749;28;20054;-62
2022/06/13 08:09:13;;;;;;;1.48;1.38;;;22.60;99.90;;;;;;5168620;28;20046;-62
2022/06/13 08:11:50;;;;;;;1.65;1.45;;;23.00;99.90;;;;;;5170072;28;20041;-63
2022/06/13 08:14:23;;;;;;;1.85;1.33;;;23.30;99.90;;;;;;5171834;28;20044;-63
2022/06/13 08:16:57;;;;;;;1.40;1.30;;;23.50;99.90;;;;;;5136307;28;20343;-62
2022/06/13 08:19:29;;;;;;;2.13;1.70;;;23.10;99.90;;;;;;5156254;28;20317;-62
2022/06/13 08:22:03;;;;;;;1.67;1.58;;;23.20;99.90;;;;;;5153418;28;20457;-64
2022/06/13 08:24:34;;;;;;;1.80;1.63;;;22.60;99.90;;;;;;5152968;28;20038;-63
2022/06/13 08:27:07;;;;;;;1.88;1.77;;;22.30;99.90;;;;;;5152330;28;20046;-63
2022/06/13 08:29:41;;;;;;;3.22;1.60;;;22.80;99.90;;;;;;5137921;28;20038;-64
2022/06/13 08:32:15;;;;;;;1.83;1.42;;;23.90;99.90;;;;;;5154532;28;20022;-64
2022/06/13 08:34:47;;;;;;;;;;;24.00;99.90;;;;;;5147459;28;20038;-63
2022/06/13 08:37:19;;;;;;;1.52;1.42;;;24.20;99.90;;;;;;5151004;28;19922;-63
2022/06/13 08:39:52;;;;;;;1.60;1.13;;;24.20;99.90;;;;;;5155592;28;20038;-64
2022/06/13 08:42:55;;;;;;;1.90;1.70;;;24.90;99.90;;;;;;5171589;28;20034;-63
2022/06/13 08:45:44;;;;;;;1.58;1.45;;;25.70;99.90;;;;;;5137784;28;20049;-63
2022/06/13 08:48:34;;;;;;;1.48;1.38;;;25.10;99.90;;;;;;5154144;28;20042;-63
2022/06/13 08:51:32;;;;;;;1.70;1.60;;;24.70;99.90;;;;;;5154464;28;20288;-63
2022/06/13 08:54:08;;;;;;;2.00;1.60;;;24.10;99.90;;;;;;5154745;28;20327;-63
2022/06/13 08:56:41;;;;;;;1.73;1.60;;;23.80;99.90;;;;;;5164328;28;20042;-63
2022/06/13 08:59:34;;;;;;;4.00;1.67;;;23.60;99.90;;;;;;5163805;28;20215;-63
2022/06/13 09:02:29;;;;;;;2.00;1.75;;;23.90;99.90;;;;;;5169372;28;20087;-64
2022/06/13 09:05:33;;;;;;;2.33;1.58;;;24.60;99.90;;;;;;5159201;28;20361;-63
2022/06/13 09:08:32;;;;;;;2.63;1.25;;;24.00;99.90;;;;;;5167712;28;20061;-63
2022/06/13 09:11:29;;;;;;;1.60;1.50;;;24.00;99.90;;;;;;5167947;28;20391;-62
2022/06/13 09:14:29;;;;;;;1.63;1.35;;;23.80;99.90;;;;;;5168737;28;20035;-64
2022/06/13 09:17:06;;;;;;;1.50;1.20;;;23.90;99.90;;;;;;5157389;28;20052;-64
2022/06/13 09:20:16;;;;;;;1.65;1.55;;;24.00;99.90;;;;;;5155555;28;20238;-64
2022/06/13 09:23:09;;;;;;;1.50;1.40;;;24.20;99.90;;;;;;5175353;28;20359;-62
2022/06/13 09:26:32;;;;;;;1.10;1.00;;;24.10;99.90;;;;;;5183062;28;20030;-63
2022/06/13 09:29:25;;;;;;;1.35;1.25;;;24.40;99.90;;;;;;5100143;29;20049;-65
2022/06/13 09:32:14;;;;;;;1.38;1.15;;;23.80;99.90;;;;;;5100373;29;20340;-62
2022/06/13 09:34:52;;;;;;;1.00;1.00;;;23.90;99.90;;;;;;5125301;28;20035;-63
2022/06/13 09:37:36;;;;;;;1.15;1.05;;;24.20;99.90;;;;;;5063564;28;20406;-63
2022/06/13 09:40:15;;;;;;;1.20;1.10;;;24.40;99.90;;;;;;5099909;29;20050;-63
2022/06/13 09:42:58;;;;;;;1.20;1.10;;;24.70;99.90;;;;;;5098683;29;20046;-62
2022/06/13 09:45:51;;;;;;;1.37;1.23;;;24.50;99.90;;;;;;5113417;29;20062;-62
2022/06/13 09:48:41;;;;;;;1.20;1.10;;;24.60;99.90;;;;;;5116474;28;20035;-62
2022/06/13 09:52:07;;;;;;;1.13;1.10;;;24.90;99.90;;;;;;5100716;29;20198;-63
2022/06/13 09:55:11;;;;;;;1.67;1.40;;;25.30;99.90;;;;;;5057389;29;20051;-63
2022/06/13 09:58:06;;;;;;;1.30;1.20;;;25.30;99.90;;;;;;5057300;29;20044;-63
2022/06/13 10:01:05;;;;;;;1.10;1.02;;;25.70;99.90;;;;;;5011340;29;20058;-63
2022/06/13 10:03:58;;;;;;;1.13;0.95;;;26.40;99.90;;;;;;5083005;29;20289;-63
2022/06/13 10:06:30;;;;;;;1.95;1.00;;;26.20;99.90;;;;;;5099270;28;20330;-62
2022/06/13 10:09:29;;;;;;;1.20;1.17;;;26.10;99.90;;;;;;5116212;28;20106;-62
2022/06/13 10:12:11;;;;;;;0.95;0.90;;;25.80;99.90;;;;;;5097314;29;20047;-62
2022/06/13 10:14:55;;;;;;;0.80;0.80;;;25.90;99.90;;;;;;5100513;29;20400;-63
2022/06/13 10:18:14;;;;;;;0.88;0.88;;;25.70;99.90;;;;;;5100330;29;20236;-62
2022/06/13 10:20:59;;;;;;;1.10;1.00;;;25.70;99.90;;;;;;5115580;28;20043;-62
2022/06/13 10:23:49;;;;;;;0.80;0.80;;;26.00;99.90;;;;;;5108806;28;20050;-64
2022/06/13 10:27:17;;;;;;;0.80;0.80;;;26.10;99.90;;;;;;5168349;28;20049;-64
2022/06/13 10:30:07;;;;;;;1.10;0.90;;;26.60;99.90;;;;;;5161005;28;20049;-63
2022/06/13 10:33:29;;;;;;;0.80;0.80;;;26.70;99.90;;;;;;5176913;28;20360;-64
2022/06/13 10:36:59;;;;;;;0.80;0.80;;;27.10;99.90;;;;;;5153700;28;20050;-62
2022/06/13 10:39:36;;;;;;;0.73;0.73;;;26.90;99.90;;;;;;5156283;28;20663;-63
2022/06/13 10:42:16;;;;;;;0.80;0.80;;;26.70;99.90;;;;;;5133414;28;20232;-63
2022/06/13 10:44:48;;;;;;;0.75;0.75;;;26.90;99.90;;;;;;5154491;28;20278;-63
2022/06/13 10:47:35;;;;;;;0.75;0.75;;;26.50;99.90;;;;;;5139974;28;20034;-63
2022/06/13 10:50:14;;;;;;;0.60;0.60;;;26.70;99.90;;;;;;5154024;28;20046;-63
2022/06/13 10:52:50;;;;;;;1.48;0.70;;;27.00;99.90;;;;;;5154881;28;20255;-63
2022/06/13 10:55:25;;;;;;;0.93;0.93;;;27.30;99.90;;;;;;5139330;28;20040;-63
2022/06/13 10:58:27;;;;;;;0.50;0.50;;;27.50;99.90;;;;;;5123509;28;20140;-63
2022/06/13 11:01:24;;;;;;;0.60;0.60;;;27.90;99.90;;;;;;5133396;28;20050;-63
2022/06/13 11:04:16;;;;;;;0.80;0.70;;;27.50;99.90;;;;;;5144462;28;20053;-64
2022/06/13 11:06:55;;;;;;;1.38;0.60;;;28.40;99.90;;;;;;5129441;28;20373;-63
2022/06/13 11:09:54;;;;;;;0.70;0.70;;;28.60;99.90;;;;;;5139640;28;20050;-62
2022/06/13 11:12:38;;;;;;;2.25;0.90;;;28.50;99.90;;;;;;5155680;28;20048;-63
2022/06/13 11:25:01;;;;;;;0.57;0.57;;;28.50;99.90;;;;;;5191192;28;20041;-64
2022/06/13 11:27:42;;;;;;;0.70;0.70;;;27.70;99.90;;;;;;5177678;28;20227;-63
2022/06/13 11:30:16;;;;;;;0.70;0.70;;;27.90;99.90;;;;;;5189358;28;20279;-63
2022/06/13 11:33:09;;;;;;;0.60;0.60;;;28.30;99.90;;;;;;5174843;28;20026;-64
2022/06/13 11:36:01;;;;;;;0.60;0.60;;;28.60;99.90;;;;;;5183691;28;20103;-63
2022/06/13 11:38:52;;;;;;;0.80;0.77;;;29.10;99.90;;;;;;5170102;28;20049;-64
2022/06/13 11:41:32;;;;;;;0.73;0.73;;;29.40;99.90;;;;;;5176315;28;20280;-63
2022/06/13 11:44:28;;;;;;;0.65;0.65;;;29.00;99.90;;;;;;5192179;28;20358;-64
2022/06/13 11:47:05;;;;;;;0.70;0.70;;;28.10;99.90;;;;;;5177907;28;20038;-64
2022/06/13 11:49:44;;;;;;;2.83;0.82;;;29.60;99.90;;;;;;5178661;28;20036;-63
2022/06/13 11:55:30;;;;;;;0.70;0.70;;;29.50;99.90;;;;;;5172906;28;20042;-63
2022/06/13 11:58:03;;;;;;;1.10;0.80;;;29.30;99.90;;;;;;5176118;28;20033;-63
2022/06/13 12:00:54;;;;;;;0.93;0.80;;;29.00;99.90;;;;;;5176889;28;20044;-63
2022/06/13 12:03:28;;;;;;;0.70;0.70;;;28.80;99.90;;;;;;5173190;28;20229;-63
2022/06/13 12:06:14;;;;;;;0.80;0.80;;;30.20;99.90;;;;;;5170340;28;20061;-63
2022/06/13 12:09:01;;;;;;;0.60;0.60;;;29.50;99.90;;;;;;5156224;28;20049;-63
2022/06/13 12:11:50;;;;;;;0.63;0.63;;;29.60;99.90;;;;;;5157541;28;20030;-64
2022/06/13 12:14:21;;;;;;;0.93;0.70;;;30.50;99.90;;;;;;5172981;28;20041;-64
2022/06/13 12:17:18;;;;;;;0.75;0.75;;;30.40;99.90;;;;;;5172395;28;20042;-64
2022/06/13 12:20:07;;;;;;;1.67;0.90;;;31.10;99.90;;;;;;5171173;28;20335;-63
2022/06/13 12:23:04;;;;;;;0.90;0.73;;;32.10;99.90;;;;;;5171764;28;20060;-64
2022/06/13 12:25:53;;;;;;;0.70;0.70;;;30.40;99.90;;;;;;5165449;28;20039;-64
2022/06/13 12:28:41;;;;;;;0.77;0.70;;;30.10;99.90;;;;;;5165996;28;20379;-63
2022/06/13 12:31:43;;;;;;;0.82;0.82;;;29.70;99.90;;;;;;5166148;28;20025;-65
2022/06/13 12:34:29;;;;;;;0.80;0.70;;;30.60;99.90;;;;;;5169173;28;20036;-64
2022/06/13 12:37:27;;;;;;;0.90;0.90;;;30.40;99.90;;;;;;5170301;28;20346;-64
2022/06/13 12:40:41;;;;;;;1.85;0.73;;;29.90;99.90;;;;;;5154784;28;20060;-62
2022/06/13 12:43:58;;;;;;;0.90;0.90;;;30.10;99.90;;;;;;5150497;28;20050;-64
2022/06/13 12:47:29;;;;;;;0.60;0.60;;;29.80;99.90;;;;;;5145676;28;20026;-63
2022/06/13 12:50:18;;;;;;;1.23;0.90;;;29.70;99.90;;;;;;5174304;28;20053;-64
2022/06/13 12:53:02;;;;;;;1.33;0.68;;;27.80;99.90;;;;;;5149124;28;20376;-63
2022/06/13 12:55:40;;;;;;;1.17;0.95;;;29.50;99.90;;;;;;5165097;28;20201;-63
2022/06/13 12:58:39;;;;;;;0.90;0.90;;;30.00;99.90;;;;;;5166963;28;20057;-63
2022/06/13 13:01:25;;;;;;;0.70;0.70;;;28.20;99.90;;;;;;5164713;28;20069;-64
2022/06/13 13:04:09;;;;;;;0.70;0.70;;;28.50;99.90;;;;;;5149367;28;20253;-64
2022/06/13 13:06:53;;;;;;;0.80;0.80;;;28.80;99.90;;;;;;5144417;28;20064;-62
2022/06/13 13:09:56;;;;;;;1.10;0.77;;;28.50;99.90;;;;;;5170907;28;20056;-64
2022/06/13 13:12:57;;;;;;;0.70;0.70;;;28.40;99.90;;;;;;5156366;28;20069;-63
2022/06/13 13:15:39;;;;;;;0.98;0.93;;;27.00;99.90;;;;;;5143055;28;20073;-63
2022/06/13 13:18:16;;;;;;;0.70;0.68;;;26.90;99.90;;;;;;5149162;28;20048;-63
2022/06/13 13:21:11;;;;;;;1.10;1.05;;;27.20;99.90;;;;;;5181271;28;20386;-62
2022/06/13 13:24:17;;;;;;;2.20;1.20;;;28.50;99.90;;;;;;5174716;28;20022;-64
2022/06/13 13:27:03;;;;;;;0.80;0.80;;;29.70;99.90;;;;;;5174580;28;20472;-64
2022/06/13 13:30:04;;;;;;;1.00;1.00;;;28.90;99.90;;;;;;5175508;28;20035;-63
2022/06/13 13:33:23;;;;;;;0.75;0.70;;;28.00;99.90;;;;;;5154822;28;20036;-63
2022/06/13 13:36:24;;;;;;;0.90;0.90;;;29.80;99.90;;;;;;5149231;28;20052;-64
2022/06/13 13:39:40;;;;;;;1.20;1.10;;;31.50;99.90;;;;;;5152600;28;20352;-63
2022/06/13 13:42:48;;;;;;;1.25;1.02;;;31.20;99.90;;;;;;5154940;28;20584;-63
2022/06/13 13:45:42;;;;;;;0.82;0.82;;;31.00;99.90;;;;;;5147503;28;20033;-64
2022/06/13 13:48:28;;;;;;;1.13;0.90;;;30.70;99.90;;;;;;5165830;28;20046;-64
2022/06/13 13:51:02;;;;;;;0.93;0.93;;;29.60;99.90;;;;;;5181274;28;20042;-63
2022/06/13 13:53:55;;;;;;;;;;;29.00;99.90;;;;;;5147981;28;20061;-63
2022/06/13 13:56:48;;;;;;;1.30;0.73;;;28.60;99.90;;;;;;5163344;28;19914;-63
2022/06/13 13:59:26;;;;;;;2.15;0.90;;;27.60;99.90;;;;;;5176049;28;20052;-63
2022/06/13 14:03:04;;;;;;;1.73;1.10;;;26.40;99.90;;;;;;5159245;28;20038;-62
2022/06/13 14:05:50;;;;;;;1.30;1.23;;;25.90;99.90;;;;;;5158657;28;20049;-63
2022/06/13 14:08:29;;;;;;;1.05;0.80;;;25.70;99.90;;;;;;5156889;28;20031;-63
2022/06/13 14:11:08;;;;;;;0.85;0.85;;;25.50;99.90;;;;;;5161887;28;20045;-63
2022/06/13 14:13:46;;;;;;;0.63;0.63;;;25.10;99.90;;;;;;5158359;28;20038;-63
2022/06/13 14:16:27;;;;;;;1.13;1.08;;;24.70;99.90;;;;;;5173085;28;20072;-62
2022/06/13 14:19:26;;;;;;;0.80;0.80;;;24.70;99.90;;;;;;5159649;28;20151;-63
2022/06/13 14:22:20;;;;;;;0.73;0.73;;;24.70;99.90;;;;;;5155151;28;20303;-63
2022/06/13 14:25:03;;;;;;;1.77;1.03;;;24.70;99.90;;;;;;5174858;28;20332;-63
2022/06/13 14:27:59;;;;;;;1.00;0.90;;;24.90;99.90;;;;;;5171508;28;20254;-63
2022/06/13 14:36:48;;;;;;;0.90;0.90;;;27.60;99.90;;;;;;5157226;28;20220;-63
2022/06/13 14:39:31;;;;;;;1.42;1.33;;;28.10;99.90;;;;;;5171462;28;20053;-65
2022/06/13 14:42:18;;;;;;;0.90;0.90;;;27.70;99.90;;;;;;5171574;28;20057;-62
2022/06/13 14:45:07;;;;;;;1.38;0.88;;;27.70;99.90;;;;;;5169905;28;20127;-64
2022/06/13 14:48:35;;;;;;;0.73;0.73;;;27.80;99.90;;;;;;5138338;28;20061;-63
2022/06/13 14:51:20;;;;;;;1.10;1.00;;;28.60;99.90;;;;;;5148830;28;20052;-64
2022/06/13 14:54:42;;;;;;;0.98;0.90;;;29.30;99.90;;;;;;5172464;28;20052;-63